sensor_id;sensor_type;location;lat;lon;timestamp;pressure;altitude;pressure_sealevel;temperature;humidity
57668;BME280;43499;52.366;12.912;2023-04-03T00:00:27;102742.25;;;-0.28;86.92
57668;BME280;43499;52.366;12.912;2023-04-03T00:01:29;102734.50;;;-0.28;86.77
57668;BME280;43499;52.366;12.912;2023-04-03T00:02:38;102745.53;;;-0.29;86.66
57668;BME280;43499;52.366;12.912;2023-04-03T00:03:41;102745.31;;;-0.30;86.94
57668;BME280;43499;52.366;12.912;2023-04-03T00:04:42;102725.53;;;-0.41;86.88
57668;BME280;43499;52.366;12.912;2023-04-03T00:05:43;102745.75;;;-0.33;86.93
57668;BME280;43499;52.366;12.912;2023-04-03T00:06:45;102721.03;;;-0.48;87.32
57668;BME280;43499;52.366;12.912;2023-04-03T00:07:46;102739.16;;;-0.37;87.45
57668;BME280;43499;52.366;12.912;2023-04-03T00:08:47;102746.44;;;-0.34;87.05
57668;BME280;43499;52.366;12.912;2023-04-03T00:09:48;102743.41;;;-0.37;87.28
57668;BME280;43499;52.366;12.912;2023-04-03T00:10:49;102745.97;;;-0.37;87.22
57668;BME280;43499;52.366;12.912;2023-04-03T00:11:50;102743.41;;;-0.37;87.42
57668;BME280;43499;52.366;12.912;2023-04-03T00:12:51;102731.16;;;-0.44;87.16
57668;BME280;43499;52.366;12.912;2023-04-03T00:13:52;102733.25;;;-0.47;87.31
57668;BME280;43499;52.366;12.912;2023-04-03T00:14:53;102750.66;;;-0.40;87.39
57668;BME280;43499;52.366;12.912;2023-04-03T00:15:54;102736.06;;;-0.45;87.47
57668;BME280;43499;52.366;12.912;2023-04-03T00:16:55;102741.72;;;-0.42;87.29
57668;BME280;43499;52.366;12.912;2023-04-03T00:17:57;102751.34;;;-0.41;87.52
57668;BME280;43499;52.366;12.912;2023-04-03T00:18:58;102742.69;;;-0.42;87.62
57668;BME280;43499;52.366;12.912;2023-04-03T00:19:59;102740.78;;;-0.43;87.46
57668;BME280;43499;52.366;12.912;2023-04-03T00:21:00;102727.38;;;-0.52;86.56
57668;BME280;43499;52.366;12.912;2023-04-03T00:22:01;102732.06;;;-0.49;86.67
57668;BME280;43499;52.366;12.912;2023-04-03T00:23:03;102719.59;;;-0.57;87.24
57668;BME280;43499;52.366;12.912;2023-04-03T00:24:04;102737.22;;;-0.49;87.63
57668;BME280;43499;52.366;12.912;2023-04-03T00:25:06;102716.06;;;-0.64;87.17
57668;BME280;43499;52.366;12.912;2023-04-03T00:26:07;102749.94;;;-0.45;87.17
57668;BME280;43499;52.366;12.912;2023-04-03T00:27:08;102733.91;;;-0.59;86.81
57668;BME280;43499;52.366;12.912;2023-04-03T00:28:09;102749.44;;;-0.48;87.35
57668;BME280;43499;52.366;12.912;2023-04-03T00:29:11;102750.16;;;-0.49;87.00
57668;BME280;43499;52.366;12.912;2023-04-03T00:30:14;102740.75;;;-0.54;86.80
57668;BME280;43499;52.366;12.912;2023-04-03T00:31:17;102749.91;;;-0.51;86.48
57668;BME280;43499;52.366;12.912;2023-04-03T00:32:18;102713.44;;;-0.69;86.56
57668;BME280;43499;52.366;12.912;2023-04-03T00:33:19;102753.41;;;-0.50;86.69
57668;BME280;43499;52.366;12.912;2023-04-03T00:34:23;102737.44;;;-0.59;86.36
57668;BME280;43499;52.366;12.912;2023-04-03T00:35:24;102757.66;;;-0.51;86.19
57668;BME280;43499;52.366;12.912;2023-04-03T00:36:27;102744.94;;;-0.60;86.58
57668;BME280;43499;52.366;12.912;2023-04-03T00:37:29;102760.25;;;-0.51;86.30
57668;BME280;43499;52.366;12.912;2023-04-03T00:38:31;102752.28;;;-0.52;86.56
57668;BME280;43499;52.366;12.912;2023-04-03T00:39:32;102757.88;;;-0.55;86.04
57668;BME280;43499;52.366;12.912;2023-04-03T00:40:38;102756.47;;;-0.53;86.76
57668;BME280;43499;52.366;12.912;2023-04-03T00:41:41;102729.66;;;-0.65;86.57
57668;BME280;43499;52.366;12.912;2023-04-03T00:42:45;102757.63;;;-0.56;86.45
57668;BME280;43499;52.366;12.912;2023-04-03T00:43:46;102756.25;;;-0.54;86.26
57668;BME280;43499;52.366;12.912;2023-04-03T00:45:51;102755.75;;;-0.57;86.21
57668;BME280;43499;52.366;12.912;2023-04-03T00:46:52;102756.69;;;-0.57;86.46
57668;BME280;43499;52.366;12.912;2023-04-03T00:47:54;102760.91;;;-0.57;86.84
57668;BME280;43499;52.366;12.912;2023-04-03T00:48:55;102753.88;;;-0.58;86.84
57668;BME280;43499;52.366;12.912;2023-04-03T00:49:57;102759.03;;;-0.58;87.11
57668;BME280;43499;52.366;12.912;2023-04-03T00:50:59;102747.47;;;-0.66;87.19
57668;BME280;43499;52.366;12.912;2023-04-03T00:52:01;102738.06;;;-0.77;87.00
57668;BME280;43499;52.366;12.912;2023-04-03T00:53:04;102760.66;;;-0.65;86.85
57668;BME280;43499;52.366;12.912;2023-04-03T00:54:06;102762.53;;;-0.64;86.57
57668;BME280;43499;52.366;12.912;2023-04-03T00:55:09;102755.47;;;-0.70;87.00
57668;BME280;43499;52.366;12.912;2023-04-03T00:56:13;102755.00;;;-0.68;87.34
57668;BME280;43499;52.366;12.912;2023-04-03T00:57:17;102758.78;;;-0.66;87.44
57668;BME280;43499;52.366;12.912;2023-04-03T00:58:20;102769.34;;;-0.64;87.47
57668;BME280;43499;52.366;12.912;2023-04-03T00:59:27;102763.25;;;-0.65;87.31
57668;BME280;43499;52.366;12.912;2023-04-03T01:00:31;102760.41;;;-0.66;87.06
57668;BME280;43499;52.366;12.912;2023-04-03T01:01:32;102754.75;;;-0.75;87.00
57668;BME280;43499;52.366;12.912;2023-04-03T01:02:33;102764.38;;;-0.68;87.29
57668;BME280;43499;52.366;12.912;2023-04-03T01:03:34;102743.19;;;-0.83;86.81
57668;BME280;43499;52.366;12.912;2023-04-03T01:04:41;102755.47;;;-0.70;86.68
57668;BME280;43499;52.366;12.912;2023-04-03T01:05:42;102766.50;;;-0.71;86.52
57668;BME280;43499;52.366;12.912;2023-04-03T01:06:43;102755.91;;;-0.73;87.13
57668;BME280;43499;52.366;12.912;2023-04-03T01:07:44;102765.53;;;-0.72;86.94
57668;BME280;43499;52.366;12.912;2023-04-03T01:08:48;102762.47;;;-0.75;86.91
57668;BME280;43499;52.366;12.912;2023-04-03T01:09:53;102762.47;;;-0.75;86.61
57668;BME280;43499;52.366;12.912;2023-04-03T01:10:56;102767.66;;;-0.75;86.53
57668;BME280;43499;52.366;12.912;2023-04-03T01:12:22;102767.38;;;-0.76;86.52
57668;BME280;43499;52.366;12.912;2023-04-03T01:13:30;102763.38;;;-0.80;86.86
57668;BME280;43499;52.366;12.912;2023-04-03T01:14:31;102768.09;;;-0.78;86.97
57668;BME280;43499;52.366;12.912;2023-04-03T01:15:32;102757.50;;;-0.85;86.80
57668;BME280;43499;52.366;12.912;2023-04-03T01:16:35;102769.75;;;-0.78;87.08
57668;BME280;43499;52.366;12.912;2023-04-03T01:18:39;102773.94;;;-0.79;87.34
57668;BME280;43499;52.366;12.912;2023-04-03T01:19:45;102772.78;;;-0.81;86.82
57668;BME280;43499;52.366;12.912;2023-04-03T01:21:10;102765.72;;;-0.82;87.14
57668;BME280;43499;52.366;12.912;2023-04-03T01:22:25;102766.84;;;-0.85;86.83
57668;BME280;43499;52.366;12.912;2023-04-03T01:24:54;102747.09;;;-0.96;87.20
57668;BME280;43499;52.366;12.912;2023-04-03T01:25:57;102759.84;;;-0.86;87.10
57668;BME280;43499;52.366;12.912;2023-04-03T01:26:58;102766.63;;;-0.87;87.07
57668;BME280;43499;52.366;12.912;2023-04-03T01:28:00;102762.34;;;-0.92;87.47
57668;BME280;43499;52.366;12.912;2023-04-03T01:29:02;102763.09;;;-0.93;87.91
57668;BME280;43499;52.366;12.912;2023-04-03T01:30:04;102764.00;;;-0.93;87.36
57668;BME280;43499;52.366;12.912;2023-04-03T01:31:14;102757.41;;;-0.96;87.69
57668;BME280;43499;52.366;12.912;2023-04-03T01:32:16;102751.75;;;-0.99;88.24
57668;BME280;43499;52.366;12.912;2023-04-03T01:33:18;102774.84;;;-0.89;88.31
57668;BME280;43499;52.366;12.912;2023-04-03T01:34:21;102769.91;;;-0.88;88.83
57668;BME280;43499;52.366;12.912;2023-04-03T01:35:24;102759.31;;;-0.95;88.44
57668;BME280;43499;52.366;12.912;2023-04-03T01:36:28;102766.81;;;-0.91;88.54
57668;BME280;43499;52.366;12.912;2023-04-03T01:37:30;102764.00;;;-0.93;88.10
57668;BME280;43499;52.366;12.912;2023-04-03T01:38:31;102771.06;;;-0.91;88.40
57668;BME280;43499;52.366;12.912;2023-04-03T01:39:32;102773.13;;;-0.95;88.51
57668;BME280;43499;52.366;12.912;2023-04-03T01:40:34;102776.69;;;-0.94;88.37
57668;BME280;43499;52.366;12.912;2023-04-03T01:41:35;102766.56;;;-0.98;88.91
57668;BME280;43499;52.366;12.912;2023-04-03T01:42:45;102752.41;;;-1.06;88.72
57668;BME280;43499;52.366;12.912;2023-04-03T01:43:48;102776.41;;;-0.96;88.82
57668;BME280;43499;52.366;12.912;2023-04-03T01:44:49;102738.00;;;-1.21;88.46
57668;BME280;43499;52.366;12.912;2023-04-03T01:45:50;102771.22;;;-1.01;88.31
57668;BME280;43499;52.366;12.912;2023-04-03T01:46:52;102775.00;;;-0.99;89.01
57668;BME280;43499;52.366;12.912;2023-04-03T01:47:54;102776.66;;;-1.00;88.56
57668;BME280;43499;52.366;12.912;2023-04-03T01:48:58;102776.38;;;-1.01;88.98
57668;BME280;43499;52.366;12.912;2023-04-03T01:49:59;102780.63;;;-1.02;88.37
57668;BME280;43499;52.366;12.912;2023-04-03T01:51:01;102775.91;;;-1.04;88.54
57668;BME280;43499;52.366;12.912;2023-04-03T01:52:02;102780.34;;;-1.03;88.75
57668;BME280;43499;52.366;12.912;2023-04-03T01:53:03;102775.41;;;-1.07;88.74
57668;BME280;43499;52.366;12.912;2023-04-03T01:54:04;102779.63;;;-1.08;88.86
57668;BME280;43499;52.366;12.912;2023-04-03T01:55:05;102773.72;;;-1.13;88.79
57668;BME280;43499;52.366;12.912;2023-04-03T01:56:07;102772.53;;;-1.15;88.37
57668;BME280;43499;52.366;12.912;2023-04-03T01:57:08;102789.00;;;-1.09;88.70
57668;BME280;43499;52.366;12.912;2023-04-03T01:58:10;102784.09;;;-1.07;89.18
57668;BME280;43499;52.366;12.912;2023-04-03T01:59:11;102787.63;;;-1.06;89.09
57668;BME280;43499;52.366;12.912;2023-04-03T02:00:13;102783.13;;;-1.13;88.87
57668;BME280;43499;52.366;12.912;2023-04-03T02:01:14;102789.94;;;-1.08;89.08
57668;BME280;43499;52.366;12.912;2023-04-03T02:02:15;102796.75;;;-1.09;89.22
57668;BME280;43499;52.366;12.912;2023-04-03T02:03:17;102791.59;;;-1.09;88.65
57668;BME280;43499;52.366;12.912;2023-04-03T02:04:19;102787.31;;;-1.14;88.84
57668;BME280;43499;52.366;12.912;2023-04-03T02:05:20;102789.19;;;-1.13;88.95
57668;BME280;43499;52.366;12.912;2023-04-03T02:06:22;102789.66;;;-1.15;89.10
57668;BME280;43499;52.366;12.912;2023-04-03T02:07:23;102803.31;;;-1.11;89.07
57668;BME280;43499;52.366;12.912;2023-04-03T02:08:24;102786.56;;;-1.18;89.01
57668;BME280;43499;52.366;12.912;2023-04-03T02:09:25;102794.31;;;-1.18;89.03
57668;BME280;43499;52.366;12.912;2023-04-03T02:10:27;102800.44;;;-1.18;89.18
57668;BME280;43499;52.366;12.912;2023-04-03T02:11:28;102801.63;;;-1.16;89.05
57668;BME280;43499;52.366;12.912;2023-04-03T02:12:29;102795.75;;;-1.15;89.21
57668;BME280;43499;52.366;12.912;2023-04-03T02:13:30;102787.03;;;-1.21;89.61
57668;BME280;43499;52.366;12.912;2023-04-03T02:14:31;102771.97;;;-1.29;89.21
57668;BME280;43499;52.366;12.912;2023-04-03T02:15:32;102794.59;;;-1.17;89.83
57668;BME280;43499;52.366;12.912;2023-04-03T02:16:33;102783.75;;;-1.20;90.41
57668;BME280;43499;52.366;12.912;2023-04-03T02:17:35;102782.56;;;-1.22;89.62
57668;BME280;43499;52.366;12.912;2023-04-03T02:18:36;102795.50;;;-1.16;89.22
57668;BME280;43499;52.366;12.912;2023-04-03T02:19:37;102792.44;;;-1.19;89.15
57668;BME280;43499;52.366;12.912;2023-04-03T02:20:38;102792.19;;;-1.21;89.39
57668;BME280;43499;52.366;12.912;2023-04-03T02:21:39;102783.22;;;-1.29;89.60
57668;BME280;43499;52.366;12.912;2023-04-03T02:22:40;102790.50;;;-1.26;89.31
57668;BME280;43499;52.366;12.912;2023-04-03T02:23:41;102791.47;;;-1.26;90.01
57668;BME280;43499;52.366;12.912;2023-04-03T02:24:43;102782.53;;;-1.28;89.49
57668;BME280;43499;52.366;12.912;2023-04-03T02:25:44;102799.88;;;-1.27;89.39
57668;BME280;43499;52.366;12.912;2023-04-03T02:26:45;102801.78;;;-1.26;89.88
57668;BME280;43499;52.366;12.912;2023-04-03T02:27:46;102792.09;;;-1.32;89.71
57668;BME280;43499;52.366;12.912;2023-04-03T02:28:47;102766.66;;;-1.46;90.11
57668;BME280;43499;52.366;12.912;2023-04-03T02:29:48;102777.69;;;-1.47;89.94
57668;BME280;43499;52.366;12.912;2023-04-03T02:30:50;102800.03;;;-1.36;90.27
57668;BME280;43499;52.366;12.912;2023-04-03T02:31:51;102772.00;;;-1.50;90.77
57668;BME280;43499;52.366;12.912;2023-04-03T02:32:53;102802.63;;;-1.36;90.86
57668;BME280;43499;52.366;12.912;2023-04-03T02:33:54;102786.09;;;-1.48;90.27
57668;BME280;43499;52.366;12.912;2023-04-03T02:34:55;102788.63;;;-1.54;90.23
57668;BME280;43499;52.366;12.912;2023-04-03T02:35:57;102796.25;;;-1.44;90.66
57668;BME280;43499;52.366;12.912;2023-04-03T02:36:58;102803.97;;;-1.44;90.90
57668;BME280;43499;52.366;12.912;2023-04-03T02:38:00;102805.59;;;-1.45;90.87
57668;BME280;43499;52.366;12.912;2023-04-03T02:39:01;102804.41;;;-1.47;91.47
57668;BME280;43499;52.366;12.912;2023-04-03T02:40:02;102802.03;;;-1.51;91.78
57668;BME280;43499;52.366;12.912;2023-04-03T02:41:06;102799.47;;;-1.51;91.08
57668;BME280;43499;52.366;12.912;2023-04-03T02:42:08;102810.50;;;-1.46;90.99
57668;BME280;43499;52.366;12.912;2023-04-03T02:43:09;102819.19;;;-1.46;91.51
57668;BME280;43499;52.366;12.912;2023-04-03T02:44:12;102808.13;;;-1.50;90.91
57668;BME280;43499;52.366;12.912;2023-04-03T02:45:13;102813.97;;;-1.51;91.53
57668;BME280;43499;52.366;12.912;2023-04-03T02:46:15;102820.78;;;-1.52;92.04
57668;BME280;43499;52.366;12.912;2023-04-03T02:47:16;102788.03;;;-1.68;91.72
57668;BME280;43499;52.366;12.912;2023-04-03T02:48:17;102789.16;;;-1.72;91.61
57668;BME280;43499;52.366;12.912;2023-04-03T02:49:19;102817.47;;;-1.57;91.68
57668;BME280;43499;52.366;12.912;2023-04-03T02:50:20;102793.13;;;-1.74;92.05
57668;BME280;43499;52.366;12.912;2023-04-03T02:51:21;102807.97;;;-1.67;91.76
57668;BME280;43499;52.366;12.912;2023-04-03T02:52:23;102818.09;;;-1.63;91.88
57668;BME280;43499;52.366;12.912;2023-04-03T02:53:26;102820.66;;;-1.63;92.45
57668;BME280;43499;52.366;12.912;2023-04-03T02:54:28;102824.63;;;-1.65;91.90
57668;BME280;43499;52.366;12.912;2023-04-03T02:55:33;102811.16;;;-1.74;91.73
57668;BME280;43499;52.366;12.912;2023-04-03T02:56:34;102797.28;;;-1.80;92.07
57668;BME280;43499;52.366;12.912;2023-04-03T02:57:35;102822.44;;;-1.74;92.05
57668;BME280;43499;52.366;12.912;2023-04-03T02:58:36;102837.22;;;-1.73;92.52
57668;BME280;43499;52.366;12.912;2023-04-03T02:59:38;102842.38;;;-1.73;92.97
57668;BME280;43499;52.366;12.912;2023-04-03T03:00:42;102833.00;;;-1.72;93.04
57668;BME280;43499;52.366;12.912;2023-04-03T03:01:43;102840.56;;;-1.68;93.10
57668;BME280;43499;52.366;12.912;2023-04-03T03:02:44;102834.88;;;-1.71;93.15
57668;BME280;43499;52.366;12.912;2023-04-03T03:03:46;102837.00;;;-1.68;92.96
57668;BME280;43499;52.366;12.912;2023-04-03T03:04:47;102816.25;;;-1.80;92.64
57668;BME280;43499;52.366;12.912;2023-04-03T03:05:48;102841.94;;;-1.70;93.76
57668;BME280;43499;52.366;12.912;2023-04-03T03:06:49;102829.50;;;-1.73;92.91
57668;BME280;43499;52.366;12.912;2023-04-03T03:07:50;102840.78;;;-1.66;93.15
57668;BME280;43499;52.366;12.912;2023-04-03T03:08:51;102842.69;;;-1.65;93.15
57668;BME280;43499;52.366;12.912;2023-04-03T03:09:52;102845.25;;;-1.65;93.37
57668;BME280;43499;52.366;12.912;2023-04-03T03:10:53;102842.44;;;-1.67;93.37
57668;BME280;43499;52.366;12.912;2023-04-03T03:11:55;102842.84;;;-1.69;93.44
57668;BME280;43499;52.366;12.912;2023-04-03T03:12:57;102852.25;;;-1.70;93.42
57668;BME280;43499;52.366;12.912;2023-04-03T03:13:58;102835.28;;;-1.79;93.38
57668;BME280;43499;52.366;12.912;2023-04-03T03:15:00;102828.22;;;-1.80;93.32
57668;BME280;43499;52.366;12.912;2023-04-03T03:16:01;102849.38;;;-1.72;93.17
57668;BME280;43499;52.366;12.912;2023-04-03T03:17:03;102850.34;;;-1.71;93.67
57668;BME280;43499;52.366;12.912;2023-04-03T03:18:04;102848.69;;;-1.71;94.28
57668;BME280;43499;52.366;12.912;2023-04-03T03:19:06;102840.97;;;-1.71;93.78
57668;BME280;43499;52.366;12.912;2023-04-03T03:20:08;102848.06;;;-1.64;93.96
57668;BME280;43499;52.366;12.912;2023-04-03T03:21:09;102851.63;;;-1.63;94.00
57668;BME280;43499;52.366;12.912;2023-04-03T03:22:10;102844.81;;;-1.63;93.85
57668;BME280;43499;52.366;12.912;2023-04-03T03:23:12;102844.81;;;-1.63;94.27
57668;BME280;43499;52.366;12.912;2023-04-03T03:24:13;102855.88;;;-1.58;93.69
57668;BME280;43499;52.366;12.912;2023-04-03T03:25:14;102846.25;;;-1.59;93.29
57668;BME280;43499;52.366;12.912;2023-04-03T03:26:16;102847.66;;;-1.61;93.41
57668;BME280;43499;52.366;12.912;2023-04-03T03:27:17;102835.56;;;-1.72;93.63
57668;BME280;43499;52.366;12.912;2023-04-03T03:28:19;102853.75;;;-1.61;93.63
57668;BME280;43499;52.366;12.912;2023-04-03T03:29:20;102851.84;;;-1.62;93.13
57668;BME280;43499;52.366;12.912;2023-04-03T03:30:22;102845.94;;;-1.66;92.96
57668;BME280;43499;52.366;12.912;2023-04-03T03:31:23;102840.50;;;-1.74;92.86
57668;BME280;43499;52.366;12.912;2023-04-03T03:32:24;102847.78;;;-1.71;92.85
57668;BME280;43499;52.366;12.912;2023-04-03T03:33:25;102843.53;;;-1.71;92.72
57668;BME280;43499;52.366;12.912;2023-04-03T03:34:28;102851.28;;;-1.71;92.58
57668;BME280;43499;52.366;12.912;2023-04-03T03:35:29;102841.19;;;-1.75;92.74
57668;BME280;43499;52.366;12.912;2023-04-03T03:36:30;102836.44;;;-1.77;92.83
57668;BME280;43499;52.366;12.912;2023-04-03T03:37:31;102850.13;;;-1.73;92.58
57668;BME280;43499;52.366;12.912;2023-04-03T03:38:32;102833.56;;;-1.84;92.96
57668;BME280;43499;52.366;12.912;2023-04-03T03:39:35;102838.09;;;-1.78;92.90
57668;BME280;43499;52.366;12.912;2023-04-03T03:40:36;102850.28;;;-1.77;92.63
57668;BME280;43499;52.366;12.912;2023-04-03T03:41:37;102838.94;;;-1.83;92.87
57668;BME280;43499;52.366;12.912;2023-04-03T03:42:39;102827.19;;;-1.87;92.53
57668;BME280;43499;52.366;12.912;2023-04-03T03:43:40;102857.34;;;-1.76;92.69
57668;BME280;43499;52.366;12.912;2023-04-03T03:44:42;102846.50;;;-1.79;92.91
57668;BME280;43499;52.366;12.912;2023-04-03T03:45:44;102857.34;;;-1.76;92.89
57668;BME280;43499;52.366;12.912;2023-04-03T03:46:46;102846.50;;;-1.79;92.56
57668;BME280;43499;52.366;12.912;2023-04-03T03:47:47;102854.47;;;-1.77;92.61
57668;BME280;43499;52.366;12.912;2023-04-03T03:48:48;102834.25;;;-1.86;92.78
57668;BME280;43499;52.366;12.912;2023-04-03T03:49:50;102839.91;;;-1.82;92.41
57668;BME280;43499;52.366;12.912;2023-04-03T03:50:51;102841.81;;;-1.81;92.71
57668;BME280;43499;52.366;12.912;2023-04-03T03:51:54;102835.44;;;-1.83;92.85
57668;BME280;43499;52.366;12.912;2023-04-03T03:52:56;102858.53;;;-1.74;92.67
57668;BME280;43499;52.366;12.912;2023-04-03T03:53:57;102838.53;;;-1.80;92.94
57668;BME280;43499;52.366;12.912;2023-04-03T03:54:58;102848.91;;;-1.75;92.48
57668;BME280;43499;52.366;12.912;2023-04-03T03:55:59;102852.88;;;-1.77;92.33
57668;BME280;43499;52.366;12.912;2023-04-03T03:57:02;102840.59;;;-1.83;92.37
57668;BME280;43499;52.366;12.912;2023-04-03T03:58:05;102852.88;;;-1.77;92.19
57668;BME280;43499;52.366;12.912;2023-04-03T03:59:07;102850.28;;;-1.77;92.35
57668;BME280;43499;52.366;12.912;2023-04-03T04:00:09;102852.19;;;-1.76;92.57
57668;BME280;43499;52.366;12.912;2023-04-03T04:01:16;102833.09;;;-1.82;92.62
57668;BME280;43499;52.366;12.912;2023-04-03T04:02:21;102848.63;;;-1.76;92.40
57668;BME280;43499;52.366;12.912;2023-04-03T04:03:22;102852.19;;;-1.76;92.46
57668;BME280;43499;52.366;12.912;2023-04-03T04:04:24;102844.44;;;-1.76;93.19
57668;BME280;43499;52.366;12.912;2023-04-03T04:05:25;102849.59;;;-1.76;92.44
57668;BME280;43499;52.366;12.912;2023-04-03T04:06:28;102817.59;;;-1.88;92.25
57668;BME280;43499;52.366;12.912;2023-04-03T04:07:33;102839.97;;;-1.77;92.07
57668;BME280;43499;52.366;12.912;2023-04-03T04:08:35;102853.09;;;-1.75;92.17
57668;BME280;43499;52.366;12.912;2023-04-03T04:09:36;102838.25;;;-1.82;92.45
57668;BME280;43499;52.366;12.912;2023-04-03T04:10:38;102833.38;;;-1.80;92.10
57668;BME280;43499;52.366;12.912;2023-04-03T04:11:39;102840.44;;;-1.79;92.01
57668;BME280;43499;52.366;12.912;2023-04-03T04:12:41;102847.25;;;-1.74;92.10
57668;BME280;43499;52.366;12.912;2023-04-03T04:13:42;102843.06;;;-1.74;92.17
57668;BME280;43499;52.366;12.912;2023-04-03T04:14:45;102836.72;;;-1.76;92.06
57668;BME280;43499;52.366;12.912;2023-04-03T04:15:47;102851.72;;;-1.73;91.86
57668;BME280;43499;52.366;12.912;2023-04-03T04:16:50;102842.03;;;-1.80;91.89
57668;BME280;43499;52.366;12.912;2023-04-03T04:17:56;102855.28;;;-1.73;92.27
57668;BME280;43499;52.366;12.912;2023-04-03T04:18:57;102832.63;;;-1.85;92.56
57668;BME280;43499;52.366;12.912;2023-04-03T04:19:59;102854.75;;;-1.76;92.35
57668;BME280;43499;52.366;12.912;2023-04-03T04:21:00;102851.91;;;-1.77;92.52
57668;BME280;43499;52.366;12.912;2023-04-03T04:22:02;102857.56;;;-1.74;92.19
57668;BME280;43499;52.366;12.912;2023-04-03T04:23:04;102854.75;;;-1.76;92.49
57668;BME280;43499;52.366;12.912;2023-04-03T04:24:06;102856.38;;;-1.76;92.67
57668;BME280;43499;52.366;12.912;2023-04-03T04:25:07;102857.06;;;-1.77;92.55
57668;BME280;43499;52.366;12.912;2023-04-03T04:26:08;102850.53;;;-1.75;92.46
57668;BME280;43499;52.366;12.912;2023-04-03T04:27:12;102846.97;;;-1.81;92.36
57668;BME280;43499;52.366;12.912;2023-04-03T04:28:13;102853.09;;;-1.75;92.38
57668;BME280;43499;52.366;12.912;2023-04-03T04:29:15;102865.06;;;-1.76;92.40
57668;BME280;43499;52.366;12.912;2023-04-03T04:30:17;102855.16;;;-1.78;92.42
57668;BME280;43499;52.366;12.912;2023-04-03T04:31:20;102840.84;;;-1.82;92.16
57668;BME280;43499;52.366;12.912;2023-04-03T04:32:22;102847.72;;;-1.77;92.79
57668;BME280;43499;52.366;12.912;2023-04-03T04:33:23;102860.44;;;-1.73;92.56
57668;BME280;43499;52.366;12.912;2023-04-03T04:34:24;102863.00;;;-1.73;92.00
57668;BME280;43499;52.366;12.912;2023-04-03T04:35:25;102868.84;;;-1.74;92.13
57668;BME280;43499;52.366;12.912;2023-04-03T04:36:27;102852.34;;;-1.80;92.27
57668;BME280;43499;52.366;12.912;2023-04-03T04:37:28;102854.47;;;-1.77;92.72
57668;BME280;43499;52.366;12.912;2023-04-03T04:38:29;102858.53;;;-1.74;92.38
57668;BME280;43499;52.366;12.912;2023-04-03T04:39:31;102855.63;;;-1.81;91.94
57668;BME280;43499;52.366;12.912;2023-04-03T04:40:33;102863.88;;;-1.78;92.48
57668;BME280;43499;52.366;12.912;2023-04-03T04:41:34;102859.22;;;-1.75;92.29
57668;BME280;43499;52.366;12.912;2023-04-03T04:42:37;102844.03;;;-1.89;92.76
57668;BME280;43499;52.366;12.912;2023-04-03T04:43:38;102853.31;;;-1.79;92.38
57668;BME280;43499;52.366;12.912;2023-04-03T04:44:39;102850.47;;;-1.81;92.55
57668;BME280;43499;52.366;12.912;2023-04-03T04:45:41;102854.00;;;-1.80;92.20
57668;BME280;43499;52.366;12.912;2023-04-03T04:46:43;102860.59;;;-1.77;92.62
57668;BME280;43499;52.366;12.912;2023-04-03T04:47:44;102860.09;;;-1.80;92.78
57668;BME280;43499;52.366;12.912;2023-04-03T04:48:46;102856.31;;;-1.82;92.67
57668;BME280;43499;52.366;12.912;2023-04-03T04:49:48;102868.56;;;-1.75;92.56
57668;BME280;43499;52.366;12.912;2023-04-03T04:50:49;102854.69;;;-1.81;92.82
57668;BME280;43499;52.366;12.912;2023-04-03T04:51:50;102853.94;;;-1.86;92.98
57668;BME280;43499;52.366;12.912;2023-04-03T04:52:53;102866.97;;;-1.75;92.92
57668;BME280;43499;52.366;12.912;2023-04-03T04:53:54;102872.88;;;-1.70;93.00
57668;BME280;43499;52.366;12.912;2023-04-03T04:54:55;102870.28;;;-1.70;92.79
57668;BME280;43499;52.366;12.912;2023-04-03T04:55:56;102870.06;;;-1.66;92.95
57668;BME280;43499;52.366;12.912;2023-04-03T04:56:57;102872.41;;;-1.67;92.92
57668;BME280;43499;52.366;12.912;2023-04-03T04:57:59;102861.59;;;-1.71;92.82
57668;BME280;43499;52.366;12.912;2023-04-03T04:59:00;102863.53;;;-1.64;93.33
57668;BME280;43499;52.366;12.912;2023-04-03T05:00:02;102867.56;;;-1.60;92.92
57668;BME280;43499;52.366;12.912;2023-04-03T05:01:07;102866.63;;;-1.61;92.65
57668;BME280;43499;52.366;12.912;2023-04-03T05:02:12;102859.97;;;-1.70;92.71
57668;BME280;43499;52.366;12.912;2023-04-03T05:03:14;102871.03;;;-1.65;92.69
57668;BME280;43499;52.366;12.912;2023-04-03T05:04:17;102870.13;;;-1.60;92.74
57668;BME280;43499;52.366;12.912;2023-04-03T05:05:20;102878.84;;;-1.60;92.70
57668;BME280;43499;52.366;12.912;2023-04-03T05:06:22;102873.91;;;-1.58;92.76
57668;BME280;43499;52.366;12.912;2023-04-03T05:07:23;102858.38;;;-1.64;92.74
57668;BME280;43499;52.366;12.912;2023-04-03T05:08:24;102866.63;;;-1.61;92.92
57668;BME280;43499;52.366;12.912;2023-04-03T05:09:26;102866.69;;;-1.55;92.63
57668;BME280;43499;52.366;12.912;2023-04-03T05:10:28;102875.34;;;-1.55;92.85
57668;BME280;43499;52.366;12.912;2023-04-03T05:11:29;102868.34;;;-1.56;92.71
57668;BME280;43499;52.366;12.912;2023-04-03T05:12:30;102869.78;;;-1.52;92.69
57668;BME280;43499;52.366;12.912;2023-04-03T05:13:35;102869.78;;;-1.52;92.38
57668;BME280;43499;52.366;12.912;2023-04-03T05:14:36;102872.16;;;-1.48;92.37
57668;BME280;43499;52.366;12.912;2023-04-03T05:15:40;102865.59;;;-1.46;92.73
57668;BME280;43499;52.366;12.912;2023-04-03T05:16:42;102869.63;;;-1.42;93.24
57668;BME280;43499;52.366;12.912;2023-04-03T05:17:43;102876.50;;;-1.37;94.22
57668;BME280;43499;52.366;12.912;2023-04-03T05:18:47;102880.81;;;-1.26;95.12
57668;BME280;43499;52.366;12.912;2023-04-03T05:19:53;102880.63;;;-1.22;94.12
57668;BME280;43499;52.366;12.912;2023-04-03T05:20:56;102876.41;;;-1.21;92.95
57668;BME280;43499;52.366;12.912;2023-04-03T05:21:59;102874.53;;;-1.22;92.74
57668;BME280;43499;52.366;12.912;2023-04-03T05:23:01;102864.91;;;-1.23;93.61
57668;BME280;43499;52.366;12.912;2023-04-03T05:24:02;102885.16;;;-1.15;93.25